createdAt,value
2018-05-11T00:02:10.317Z,96352.30
2018-05-11T00:04:40.563Z,96356.78
2018-05-11T00:07:10.097Z,96351.49
2018-05-11T00:09:39.642Z,96347.59
2018-05-11T00:12:09.775Z,96339.80
2018-05-11T00:14:39.303Z,96340.38
2018-05-11T00:17:08.820Z,96340.76
2018-05-11T00:19:38.362Z,96334.27
2018-05-11T00:22:08.615Z,96337.09
2018-05-11T00:24:38.859Z,96334.84
2018-05-11T00:27:08.380Z,96333.23
2018-05-11T00:29:37.935Z,96336.45
2018-05-11T00:32:07.845Z,96339.16
2018-05-11T00:34:37.757Z,96335.61
2018-05-11T00:37:07.277Z,96333.67
2018-05-11T00:39:37.219Z,96337.22
2018-05-11T00:42:06.734Z,96335.43
2018-05-11T00:44:36.338Z,96331.50
2018-05-11T00:47:05.897Z,96337.73
2018-05-11T00:49:35.732Z,96330.13
2018-05-11T00:52:04.789Z,96326.41
2018-05-11T00:54:34.331Z,96321.50
2018-05-11T00:57:04.270Z,96329.47
2018-05-11T00:59:33.784Z,96327.10
2018-05-11T01:02:03.290Z,96326.48
2018-05-11T01:04:32.870Z,96324.12
2018-05-11T01:07:02.413Z,96321.72
2018-05-11T01:09:31.931Z,96315.91
2018-05-11T01:12:01.487Z,96317.06
2018-05-11T01:14:31.401Z,96311.69
2018-05-11T01:17:01.428Z,96298.59
2018-05-11T01:19:31.175Z,96294.07
2018-05-11T01:22:00.841Z,96292.28
2018-05-11T01:24:30.433Z,96288.34
2018-05-11T01:27:00.350Z,96288.52
2018-05-11T01:29:30.275Z,96283.47
2018-05-11T01:32:00.190Z,96290.09
2018-05-11T01:34:30.118Z,96294.75
2018-05-11T01:36:59.639Z,96289.52
2018-05-11T01:39:29.154Z,96284.76
2018-05-11T01:41:58.676Z,96287.27
2018-05-11T01:44:28.260Z,96275.44
2018-05-11T01:46:57.794Z,96276.95
2018-05-11T01:49:27.182Z,96273.23
2018-05-11T01:51:56.488Z,96267.71
2018-05-11T01:54:25.844Z,96265.78
2018-05-11T01:56:55.790Z,96266.13
2018-05-11T01:59:25.891Z,96269.11
2018-05-11T02:01:55.416Z,96266.95
2018-05-11T02:04:25.355Z,96270.47
2018-05-11T02:06:55.063Z,96266.36
2018-05-11T02:09:24.650Z,96257.83
2018-05-11T02:11:54.197Z,96264.22
2018-05-11T02:14:23.708Z,96264.33
2018-05-11T02:16:53.228Z,96258.47
2018-05-11T02:19:23.144Z,96254.14
2018-05-11T02:21:53.076Z,96252.48
2018-05-11T02:24:23.583Z,96261.13
2018-05-11T02:26:53.536Z,96251.73
2018-05-11T02:29:23.104Z,96247.36
2018-05-11T02:31:53.020Z,96251.97
2018-05-11T02:34:22.963Z,96247.70
2018-05-11T02:36:52.588Z,96250.45
2018-05-11T02:39:22.137Z,96250.08
2018-05-11T02:41:51.677Z,96247.33
2018-05-11T02:44:21.801Z,96247.98
2018-05-11T02:46:51.328Z,96246.05
2018-05-11T02:49:20.914Z,96249.30
2018-05-11T02:51:50.434Z,96250.08
2018-05-11T02:54:19.953Z,96242.44
2018-05-11T02:56:49.478Z,96244.85
2018-05-11T02:59:19.601Z,96237.52
2018-05-11T03:01:49.126Z,96239.73
2018-05-11T03:04:18.646Z,96232.73
2018-05-11T03:06:48.632Z,96232.12
2018-05-11T03:09:18.897Z,96229.01
2018-05-11T03:11:48.848Z,96224.89
2018-05-11T03:14:18.390Z,96228.83
2018-05-11T03:16:47.928Z,96225.67
2018-05-11T03:19:17.449Z,96228.61
2018-05-11T03:21:46.960Z,96229.71
2018-05-11T03:24:16.724Z,96231.28
2018-05-11T03:26:46.676Z,96232.52
2018-05-11T03:29:16.201Z,96229.78
2018-05-11T03:31:45.713Z,96228.83
2018-05-11T03:34:15.970Z,96229.48
2018-05-11T03:36:45.489Z,96228.03
2018-05-11T03:39:15.449Z,96231.98
2018-05-11T03:41:44.991Z,96235.54
2018-05-11T03:44:14.512Z,96233.70
2018-05-11T03:46:44.488Z,96230.98
2018-05-11T03:49:13.994Z,96236.28
2018-05-11T03:51:43.518Z,96232.20
2018-05-11T03:54:13.094Z,96231.90
2018-05-11T03:56:42.600Z,96228.65
2018-05-11T03:59:12.338Z,96226.37
2018-05-11T04:01:58.696Z,96225.95
2018-05-11T04:04:44.986Z,96235.44
2018-05-11T04:07:31.156Z,96233.22
2018-05-11T04:10:00.462Z,96243.25
2018-05-11T04:12:32.064Z,96243.18
2018-05-11T04:15:01.625Z,96235.08
2018-05-11T04:17:31.555Z,96241.73
2018-05-11T04:20:01.462Z,96243.19
2018-05-11T04:22:31.396Z,96238.19
2018-05-11T04:25:00.914Z,96239.22
2018-05-11T04:27:30.491Z,96243.34
2018-05-11T04:30:00.131Z,96238.66
2018-05-11T04:32:29.640Z,96247.88
2018-05-11T04:34:59.168Z,96249.03
2018-05-11T04:37:28.677Z,96249.14
2018-05-11T04:39:58.198Z,96244.64
2018-05-11T04:42:27.758Z,96248.33
2018-05-11T04:44:57.270Z,96251.22
2018-05-11T04:47:26.790Z,96242.25
2018-05-11T04:49:56.335Z,96247.84
2018-05-11T04:52:26.269Z,96245.14
2018-05-11T04:54:56.205Z,96247.73
2018-05-11T04:57:25.746Z,96243.45
2018-05-11T04:59:55.456Z,96250.06
2018-05-11T05:02:25.049Z,96251.95
2018-05-11T05:04:54.577Z,96244.55
2018-05-11T05:07:24.142Z,96249.23
2018-05-11T05:09:53.683Z,96251.28
2018-05-11T05:12:23.281Z,96258.44
2018-05-11T05:14:52.927Z,96251.61
2018-05-11T05:17:22.483Z,96252.70
2018-05-11T05:19:52.003Z,96242.27
2018-05-11T05:22:21.503Z,96246.36
2018-05-11T05:24:51.051Z,96243.84
2018-05-11T05:27:20.970Z,96246.56
2018-05-11T05:29:50.992Z,96244.19
2018-05-11T05:32:20.556Z,96240.02
2018-05-11T05:34:50.087Z,96239.33
2018-05-11T05:37:20.327Z,96241.58
2018-05-11T05:39:50.254Z,96245.30
2018-05-11T05:42:19.760Z,96246.84
2018-05-11T05:44:49.427Z,96245.64
2018-05-11T05:47:18.993Z,96248.59
2018-05-11T05:49:48.549Z,96243.87
2018-05-11T05:52:18.128Z,96252.37
2018-05-11T05:54:47.862Z,96241.53
2018-05-11T05:57:17.382Z,96254.02
2018-05-11T05:59:46.901Z,96253.58
2018-05-11T06:02:16.835Z,96252.30
2018-05-11T06:04:46.545Z,96253.34
2018-05-11T06:07:15.868Z,96253.48
2018-05-11T06:09:45.469Z,96253.73
2018-05-11T06:12:15.003Z,96252.70
2018-05-11T06:14:44.775Z,96248.95
2018-05-11T06:17:14.713Z,96250.67
2018-05-11T06:19:44.319Z,96248.45
2018-05-11T06:22:13.840Z,96249.73
2018-05-11T06:24:43.426Z,96247.86
2018-05-11T06:27:13.188Z,96244.17
2018-05-11T06:29:42.700Z,96249.77
2018-05-11T06:32:12.224Z,96261.38
2018-05-11T06:34:42.172Z,96252.87
2018-05-11T06:37:11.876Z,96248.25
2018-05-11T06:39:41.386Z,96237.83
2018-05-11T06:42:10.903Z,96248.06
2018-05-11T06:44:40.432Z,96240.74
2018-05-11T06:47:09.955Z,96242.90
2018-05-11T06:49:39.486Z,96236.83
2018-05-11T06:52:09.018Z,96240.53
2018-05-11T06:54:38.550Z,96250.20
2018-05-11T06:57:08.082Z,96248.23
2018-05-11T06:59:38.020Z,96254.92
2018-05-11T07:02:07.547Z,96246.39
2018-05-11T07:04:37.082Z,96237.63
2018-05-11T07:07:06.582Z,96251.41
2018-05-11T07:09:36.102Z,96232.48
2018-05-11T07:12:05.702Z,96228.28
2018-05-11T07:14:35.222Z,96226.41
2018-05-11T07:17:04.421Z,96220.23
2018-05-11T07:19:33.967Z,96220.81
2018-05-11T07:22:03.663Z,96217.39
2018-05-11T07:24:33.648Z,96209.35
2018-05-11T07:27:03.179Z,96210.67
2018-05-11T07:29:33.107Z,96223.55
2018-05-11T07:32:03.033Z,96227.77
2018-05-11T07:34:32.609Z,96213.55
2018-05-11T07:37:02.147Z,96222.16
2018-05-11T07:39:31.675Z,96213.49
2018-05-11T07:42:01.210Z,96208.74
2018-05-11T07:44:30.760Z,96207.53
2018-05-11T07:47:00.382Z,96203.92
2018-05-11T07:49:30.607Z,96189.47
2018-05-11T07:52:00.117Z,96201.94
2018-05-11T07:54:29.687Z,96198.69
2018-05-11T07:56:59.623Z,96190.56
2018-05-11T07:59:29.148Z,96175.24
2018-05-11T08:01:58.657Z,96184.11
2018-05-11T08:04:28.170Z,96184.70
2018-05-11T08:06:57.693Z,96185.27
2018-05-11T08:09:27.294Z,96179.75
2018-05-11T08:11:56.814Z,96189.57
2018-05-11T08:14:26.419Z,96188.79
2018-05-11T08:16:56.080Z,96173.53
2018-05-11T08:19:25.693Z,96181.61
2018-05-11T08:21:55.531Z,96176.94
2018-05-11T08:24:25.773Z,96181.09
2018-05-11T08:26:55.360Z,96197.77
2018-05-11T08:29:25.115Z,96172.47
2018-05-11T08:31:55.031Z,96171.26
2018-05-11T08:34:24.959Z,96187.48
2018-05-11T08:36:54.899Z,96172.50
2018-05-11T08:39:24.419Z,96168.16
2018-05-11T08:41:53.977Z,96153.27
2018-05-11T08:44:24.143Z,96163.53
2018-05-11T08:46:53.668Z,96168.55
2018-05-11T08:49:23.187Z,96172.45
2018-05-11T08:51:53.044Z,96160.03
2018-05-11T08:54:22.676Z,96158.22
2018-05-11T08:56:52.014Z,96169.98
2018-05-11T08:59:21.536Z,96152.45
2018-05-11T09:01:51.455Z,96143.58
2018-05-11T09:04:21.412Z,96151.98
2018-05-11T09:06:51.356Z,96145.95
2018-05-11T09:09:20.871Z,96139.86
2018-05-11T09:11:50.422Z,96149.44
2018-05-11T09:14:19.974Z,96147.00
2018-05-11T09:16:49.526Z,96135.98
2018-05-11T09:19:19.237Z,96142.28
2018-05-11T09:21:48.760Z,96142.17
2018-05-11T09:24:18.288Z,96138.54
2018-05-11T09:26:47.876Z,96128.72
2018-05-11T09:29:17.602Z,96131.02
2018-05-11T09:31:47.187Z,96141.03
2018-05-11T09:34:17.340Z,96135.20
2018-05-11T09:36:46.866Z,96142.16
2018-05-11T09:39:16.412Z,96133.89
2018-05-11T09:41:45.918Z,96130.03
2018-05-11T09:44:15.441Z,96124.00
2018-05-11T09:46:44.988Z,96123.59
2018-05-11T09:49:14.528Z,96144.16
2018-05-11T09:51:44.200Z,96125.05
2018-05-11T09:54:13.752Z,96120.41
2018-05-11T09:56:43.316Z,96130.95
2018-05-11T09:59:12.846Z,96116.69
2018-05-11T10:01:42.853Z,96122.05
2018-05-11T10:04:12.892Z,96115.68
2018-05-11T10:06:42.462Z,96117.16
2018-05-11T10:09:11.984Z,96120.91
2018-05-11T10:11:41.546Z,96114.89
2018-05-11T10:14:11.074Z,96119.82
2018-05-11T10:16:40.603Z,96113.23
2018-05-11T10:19:10.112Z,96135.20
2018-05-11T10:21:39.740Z,96121.78
2018-05-11T10:24:09.253Z,96131.53
2018-05-11T10:26:39.684Z,96130.77
2018-05-11T10:29:09.292Z,96120.16
2018-05-11T10:31:39.177Z,96121.33
2018-05-11T10:34:08.910Z,96117.56
2018-05-11T10:36:38.442Z,96104.67
2018-05-11T10:39:07.671Z,96113.84
2018-05-11T10:41:37.215Z,96105.44
2018-05-11T10:44:07.576Z,96100.13
2018-05-11T10:46:37.111Z,96110.62
2018-05-11T10:49:06.674Z,96097.30
2018-05-11T10:51:36.216Z,96098.06
2018-05-11T10:54:05.183Z,96098.28
2018-05-11T10:56:34.690Z,96102.71
2018-05-11T10:59:03.998Z,96107.23
2018-05-11T11:01:33.520Z,96104.77
2018-05-11T11:04:03.037Z,96088.23
2018-05-11T11:06:32.565Z,96087.42
2018-05-11T11:09:02.463Z,96093.90
2018-05-11T11:11:32.018Z,96097.38
2018-05-11T11:14:01.539Z,96089.44
2018-05-11T11:16:31.266Z,96094.53
2018-05-11T11:19:00.833Z,96076.06
2018-05-11T11:21:31.025Z,96081.20
2018-05-11T11:24:00.992Z,96098.95
2018-05-11T11:26:30.518Z,96082.13
2018-05-11T11:29:00.034Z,96080.14
2018-05-11T11:31:29.572Z,96078.52
2018-05-11T11:33:59.482Z,96081.70
2018-05-11T11:36:29.438Z,96076.05
2018-05-11T11:38:58.973Z,96072.34
2018-05-11T11:41:28.494Z,96065.46
2018-05-11T11:43:58.010Z,96070.55
2018-05-11T11:46:27.750Z,96065.41
2018-05-11T11:48:57.336Z,96064.84
2018-05-11T11:51:27.250Z,96069.00
2018-05-11T11:53:57.224Z,96060.95
2018-05-11T11:56:26.747Z,96058.83
2018-05-11T11:58:57.082Z,96055.17
2018-05-11T12:01:26.623Z,96061.39
2018-05-11T12:03:56.224Z,96055.24
2018-05-11T12:06:25.733Z,96051.59
2018-05-11T12:08:55.307Z,96055.09
2018-05-11T12:11:25.000Z,96049.19
2018-05-11T12:13:54.590Z,96053.42
2018-05-11T12:16:24.308Z,96045.48
2018-05-11T12:18:53.839Z,96042.83
2018-05-11T12:21:23.376Z,96038.41
2018-05-11T12:23:53.282Z,96040.92
2018-05-11T12:26:23.057Z,96036.27
2018-05-11T12:28:52.717Z,96046.33
2018-05-11T12:31:22.276Z,96041.22
2018-05-11T12:33:51.863Z,96043.22
2018-05-11T12:36:21.398Z,96036.05
2018-05-11T12:38:50.950Z,96035.58
2018-05-11T12:41:20.480Z,96035.09
2018-05-11T12:43:50.032Z,96040.82
2018-05-11T12:46:19.954Z,96030.07
2018-05-11T12:48:49.972Z,96031.72
2018-05-11T12:51:19.586Z,96022.86
2018-05-11T12:53:49.542Z,96026.70
2018-05-11T12:56:19.085Z,96025.31
2018-05-11T12:58:48.619Z,96022.61
2018-05-11T13:01:18.553Z,96015.40
2018-05-11T13:03:48.986Z,96020.41
2018-05-11T13:06:18.519Z,96015.13
2018-05-11T13:08:48.255Z,96012.46
2018-05-11T13:11:18.936Z,96011.88
2018-05-11T13:13:49.036Z,96019.48
2018-05-11T13:16:19.443Z,96018.00
2018-05-11T13:18:49.324Z,96015.53
2018-05-11T13:21:19.820Z,96008.66
2018-05-11T13:23:49.980Z,96000.07
2018-05-11T13:26:20.084Z,96001.89
2018-05-11T13:28:50.594Z,95998.16
2018-05-11T13:31:20.678Z,95997.38
2018-05-11T13:33:50.771Z,95992.98
2018-05-11T13:36:20.936Z,95999.24
2018-05-11T13:38:51.257Z,95998.66
2018-05-11T13:41:21.373Z,95997.94
2018-05-11T13:43:51.507Z,95986.75
2018-05-11T13:46:23.285Z,95988.23
2018-05-11T13:48:53.417Z,95979.50
2018-05-11T13:51:23.967Z,95987.52
2018-05-11T13:53:54.088Z,95987.01
2018-05-11T13:56:24.353Z,95983.27
2018-05-11T13:58:54.975Z,95974.99
2018-05-11T14:01:25.805Z,95978.11
2018-05-11T14:03:55.906Z,95969.89
2018-05-11T14:06:25.851Z,95974.46
2018-05-11T14:08:55.965Z,95968.39
2018-05-11T14:11:26.060Z,95967.56
2018-05-11T14:13:56.177Z,95965.54
2018-05-11T14:16:26.292Z,95964.11
2018-05-11T14:18:56.423Z,95968.69
2018-05-11T14:21:26.507Z,95965.97
2018-05-11T14:23:57.022Z,95959.98
2018-05-11T14:26:27.525Z,95960.23
2018-05-11T14:28:57.414Z,95956.78
2018-05-11T14:31:27.289Z,95954.91
2018-05-11T14:33:57.814Z,95955.14
2018-05-11T14:36:27.968Z,95953.84
2018-05-11T14:38:58.063Z,95948.93
2018-05-11T14:41:28.567Z,95943.34
2018-05-11T14:43:59.132Z,95938.28
2018-05-11T14:46:29.815Z,95941.74
2018-05-11T14:48:59.963Z,95936.52
2018-05-11T14:51:30.072Z,95944.39
2018-05-11T14:54:00.167Z,95945.56
2018-05-11T14:56:30.297Z,95939.27
2018-05-11T14:59:00.423Z,95942.16
2018-05-11T15:01:30.505Z,95942.68
2018-05-11T15:04:00.593Z,95936.22
2018-05-11T15:06:31.111Z,95935.77
2018-05-11T15:09:01.223Z,95925.26
2018-05-11T15:11:31.851Z,95925.98
2018-05-11T15:14:01.953Z,95924.34
2018-05-11T15:16:32.251Z,95925.58
2018-05-11T15:19:02.148Z,95922.95
2018-05-11T15:21:32.243Z,95917.42
2018-05-11T15:24:02.327Z,95914.03
2018-05-11T15:26:32.441Z,95912.62
2018-05-11T15:29:02.552Z,95913.58
2018-05-11T15:31:32.335Z,95914.27
2018-05-11T15:34:02.443Z,95915.63
2018-05-11T15:36:32.942Z,95914.40
2018-05-11T15:39:03.067Z,95915.69
2018-05-11T15:41:33.149Z,95907.23
2018-05-11T15:44:03.249Z,95909.68
2018-05-11T15:46:33.633Z,95907.01
2018-05-11T15:49:03.763Z,95907.84
2018-05-11T15:51:33.850Z,95902.98
2018-05-11T15:54:03.919Z,95903.35
2018-05-11T15:56:34.398Z,95903.73
2018-05-11T15:59:04.576Z,95906.84
2018-05-11T16:01:34.773Z,95901.88
2018-05-11T16:04:04.855Z,95898.02
2018-05-11T16:06:34.934Z,95901.41
2018-05-11T16:09:04.530Z,95896.60
2018-05-11T16:11:35.011Z,95906.64
2018-05-11T16:14:05.113Z,95899.75
2018-05-11T16:16:35.231Z,95908.77
2018-05-11T16:19:05.389Z,95902.04
2018-05-11T16:21:35.565Z,95907.98
2018-05-11T16:24:05.495Z,95899.49
2018-05-11T16:26:35.594Z,95908.77
2018-05-11T16:29:05.411Z,95910.21
2018-05-11T16:31:35.574Z,95902.63
2018-05-11T16:34:05.715Z,95901.15
2018-05-11T16:36:36.704Z,95904.59
2018-05-11T16:39:06.102Z,95904.86
2018-05-11T16:41:36.295Z,95896.53
2018-05-11T16:44:06.433Z,95899.36
2018-05-11T16:46:36.899Z,95896.91
2018-05-11T16:49:06.994Z,95895.20
2018-05-11T16:51:37.105Z,95896.05
2018-05-11T16:54:07.294Z,95894.33
2018-05-11T16:56:37.799Z,95898.08
2018-05-11T16:59:07.885Z,95890.84
2018-05-11T17:01:37.967Z,95892.87
2018-05-11T17:04:08.455Z,95892.11
2018-05-11T17:06:38.537Z,95886.23
2018-05-11T17:09:08.672Z,95892.86
2018-05-11T17:11:38.809Z,95890.09
2018-05-11T17:14:08.935Z,95887.88
2018-05-11T17:16:39.053Z,95889.64
2018-05-11T17:19:09.283Z,95890.59
2018-05-11T17:21:39.391Z,95889.52
2018-05-11T17:24:09.985Z,95886.88
2018-05-11T17:26:40.499Z,95892.20
2018-05-11T17:29:10.616Z,95898.91
2018-05-11T17:31:40.707Z,95894.51
2018-05-11T17:34:10.834Z,95899.49
2018-05-11T17:36:41.162Z,95896.67
2018-05-11T17:39:11.273Z,95893.63
2018-05-11T17:41:41.428Z,95892.87
2018-05-11T17:44:11.699Z,95903.09
2018-05-11T17:46:41.435Z,95900.02
2018-05-11T17:49:11.579Z,95903.01
2018-05-11T17:51:42.092Z,95906.00
2018-05-11T17:54:12.225Z,95905.35
2018-05-11T17:56:42.713Z,95907.90
2018-05-11T17:59:12.723Z,95913.56
2018-05-11T18:01:42.829Z,95918.74
2018-05-11T18:04:12.935Z,95924.54
2018-05-11T18:06:43.049Z,95925.48
2018-05-11T18:09:12.753Z,95921.83
2018-05-11T18:11:42.305Z,95926.41
2018-05-11T18:14:11.829Z,95932.16
2018-05-11T18:16:41.361Z,95926.02
2018-05-11T18:19:10.909Z,95929.16
2018-05-11T18:21:40.467Z,95932.78
2018-05-11T18:24:10.029Z,95932.66
2018-05-11T18:26:39.547Z,95935.91
2018-05-11T18:29:09.533Z,95931.11
2018-05-11T18:31:39.263Z,95940.55
2018-05-11T18:34:08.499Z,95942.54
2018-05-11T18:36:38.048Z,95943.39
2018-05-11T18:39:06.753Z,95948.23
2018-05-11T18:41:36.299Z,95943.89
2018-05-11T18:44:05.206Z,95949.16
2018-05-11T18:46:34.635Z,95949.45
2018-05-11T18:49:04.167Z,95950.29
2018-05-11T18:51:33.695Z,95952.93
2018-05-11T18:54:03.895Z,95951.91
2018-05-11T18:56:33.359Z,95952.48
2018-05-11T18:59:03.647Z,95954.25
2018-05-11T19:01:33.171Z,95953.33
2018-05-11T19:04:02.403Z,95951.03
2018-05-11T19:06:31.972Z,95959.70
2018-05-11T19:09:01.563Z,95958.14
2018-05-11T19:11:31.261Z,95961.61
2018-05-11T19:14:01.178Z,95964.03
2018-05-11T19:16:31.127Z,95967.17
2018-05-11T19:19:00.651Z,95966.34
2018-05-11T19:21:30.170Z,95963.28
2018-05-11T19:23:59.717Z,95966.80
2018-05-11T19:26:29.455Z,95976.50
2018-05-11T19:28:59.055Z,95965.48
2018-05-11T19:31:28.842Z,95973.42
2018-05-11T19:33:58.785Z,95977.98
2018-05-11T19:36:28.351Z,95986.59
2018-05-11T19:38:58.192Z,95987.16
2018-05-11T19:41:28.200Z,95981.11
2018-05-11T19:43:58.135Z,95977.78
2018-05-11T19:46:27.672Z,95986.27
2018-05-11T19:48:57.234Z,95989.90
2018-05-11T19:51:27.168Z,95996.34
2018-05-11T19:53:56.734Z,95998.72
2018-05-11T19:56:26.276Z,95998.75
2018-05-11T19:58:55.852Z,96003.33
2018-05-11T20:01:25.388Z,95999.22
2018-05-11T20:03:54.938Z,96002.78
2018-05-11T20:06:24.483Z,95998.61
2018-05-11T20:08:54.460Z,96009.36
2018-05-11T20:11:23.983Z,96009.23
2018-05-11T20:13:53.513Z,96011.84
2018-05-11T20:16:23.440Z,96011.30
2018-05-11T20:18:53.669Z,96015.22
2018-05-11T20:21:23.252Z,96013.35
2018-05-11T20:23:52.976Z,96018.33
2018-05-11T20:26:23.132Z,96018.67
2018-05-11T20:28:52.588Z,96022.31
2018-05-11T20:31:22.580Z,96022.10
2018-05-11T20:33:52.128Z,96023.31
2018-05-11T20:36:22.062Z,96022.91
2018-05-11T20:38:51.594Z,96027.63
2018-05-11T20:41:21.168Z,96022.07
2018-05-11T20:43:50.160Z,96019.66
2018-05-11T20:46:19.497Z,96024.09
2018-05-11T20:48:49.079Z,96022.16
2018-05-11T20:51:18.639Z,96018.02
2018-05-11T20:53:48.198Z,96026.31
2018-05-11T20:56:17.754Z,96025.45
2018-05-11T20:58:47.262Z,96023.30
2018-05-11T21:01:16.794Z,96021.74
2018-05-11T21:03:46.338Z,96022.58
2018-05-11T21:06:15.858Z,96021.74
2018-05-11T21:08:45.404Z,96021.52
2018-05-11T21:11:15.412Z,96022.63
2018-05-11T21:13:45.350Z,96018.66
2018-05-11T21:16:14.897Z,96023.55
2018-05-11T21:18:44.418Z,96028.77
2018-05-11T21:21:13.950Z,96030.02
2018-05-11T21:23:43.774Z,96033.31
2018-05-11T21:26:13.696Z,96037.38
2018-05-11T21:28:43.229Z,96042.11
2018-05-11T21:31:12.766Z,96038.15
2018-05-11T21:33:42.542Z,96044.05
2018-05-11T21:36:12.070Z,96044.04
2018-05-11T21:38:41.630Z,96037.64
2018-05-11T21:41:11.232Z,96039.17
2018-05-11T21:43:41.147Z,96038.92
2018-05-11T21:46:11.294Z,96037.75
2018-05-11T21:48:40.922Z,96039.13
2018-05-11T21:51:10.438Z,96035.34
2018-05-11T21:53:40.006Z,96034.70
2018-05-11T21:56:09.564Z,96030.53
2018-05-11T21:58:39.108Z,96024.95
2018-05-11T22:01:08.672Z,96024.45
2018-05-11T22:03:38.240Z,96022.69
2018-05-11T22:06:07.764Z,96022.95
2018-05-11T22:08:38.162Z,96022.18
2018-05-11T22:11:07.688Z,96027.03
2018-05-11T22:13:37.096Z,96021.44
2018-05-11T22:16:06.732Z,96017.59
2018-05-11T22:18:37.152Z,96026.98
2018-05-11T22:21:06.694Z,96024.13
2018-05-11T22:23:36.637Z,96025.70
2018-05-11T22:26:06.335Z,96023.73
2018-05-11T22:28:35.864Z,96024.13
2018-05-11T22:31:05.384Z,96021.63
2018-05-11T22:33:34.945Z,96019.92
2018-05-11T22:36:04.870Z,96019.48
2018-05-11T22:38:34.445Z,96014.31
2018-05-11T22:41:04.006Z,96017.11
2018-05-11T22:43:33.570Z,96020.93
2018-05-11T22:46:03.287Z,96023.05
2018-05-11T22:48:33.452Z,96025.09
2018-05-11T22:51:03.122Z,96024.02
2018-05-11T22:53:33.326Z,96015.28
2018-05-11T22:56:02.948Z,96018.27
2018-05-11T22:58:32.909Z,96014.30
2018-05-11T23:01:01.575Z,96016.37
2018-05-11T23:03:31.421Z,96011.02
2018-05-11T23:06:01.004Z,96014.44
2018-05-11T23:08:30.563Z,96016.06
2018-05-11T23:11:00.114Z,96014.79
2018-05-11T23:13:29.655Z,96019.61
2018-05-11T23:15:59.286Z,96018.27
2018-05-11T23:18:29.268Z,96016.89
2018-05-11T23:20:59.132Z,96014.53
2018-05-11T23:23:29.664Z,96018.27
2018-05-11T23:25:59.596Z,96017.00
2018-05-11T23:28:29.231Z,96011.20
2018-05-11T23:30:58.772Z,96006.94
2018-05-11T23:33:28.715Z,96003.54
2018-05-11T23:35:58.636Z,96011.30
2018-05-11T23:38:28.164Z,96007.28
2018-05-11T23:40:58.279Z,96005.25
2018-05-11T23:43:27.811Z,96006.89
2018-05-11T23:45:57.358Z,96003.70
2018-05-11T23:48:27.588Z,96001.68
2018-05-11T23:50:57.522Z,96000.11
2018-05-11T23:53:27.058Z,96003.64
2018-05-11T23:55:56.578Z,96001.81
2018-05-11T23:58:26.126Z,96002.78
